createdAt,value
2017-07-14T00:00:29.924Z,16.57
2017-07-14T00:01:10.816Z,16.43
2017-07-14T00:01:51.712Z,16.47
2017-07-14T00:02:32.590Z,16.47
2017-07-14T00:03:13.504Z,16.46
2017-07-14T00:03:54.392Z,16.41
2017-07-14T00:04:35.250Z,16.49
2017-07-14T00:05:16.131Z,16.36
2017-07-14T00:05:57.018Z,16.53
2017-07-14T00:06:37.906Z,16.35
2017-07-14T00:07:18.784Z,16.42
2017-07-14T00:07:59.666Z,16.33
2017-07-14T00:08:40.556Z,16.51
2017-07-14T00:09:21.455Z,16.53
2017-07-14T00:10:02.368Z,16.49
2017-07-14T00:10:43.225Z,16.51
2017-07-14T00:11:24.132Z,16.5
2017-07-14T00:12:05.023Z,16.46
2017-07-14T00:12:45.925Z,16.58
2017-07-14T00:13:26.812Z,16.51
2017-07-14T00:14:07.697Z,16.39
2017-07-14T00:14:48.587Z,16.35
2017-07-14T00:15:29.489Z,16.39
2017-07-14T00:16:10.398Z,16.35
2017-07-14T00:16:51.280Z,16.38
2017-07-14T00:17:32.171Z,16.28
2017-07-14T00:18:13.076Z,16.32
2017-07-14T00:18:53.972Z,16.28
2017-07-14T00:19:34.860Z,16.2
2017-07-14T00:20:15.768Z,16.28
2017-07-14T00:20:56.689Z,16.24
2017-07-14T00:21:37.584Z,16.23
2017-07-14T00:22:18.481Z,16.23
2017-07-14T00:22:59.357Z,16.13
2017-07-14T00:23:40.259Z,16.16
2017-07-14T00:24:21.143Z,16.23
2017-07-14T00:25:02.031Z,16.16
2017-07-14T00:25:42.954Z,16.15
2017-07-14T00:26:23.846Z,16.13
2017-07-14T00:27:04.735Z,16.13
2017-07-14T00:27:45.620Z,16.16
2017-07-14T00:28:26.499Z,16.04
2017-07-14T00:29:07.384Z,16.2
2017-07-14T00:29:48.285Z,16.09
2017-07-14T00:30:29.159Z,16.1
2017-07-14T00:31:10.054Z,16.12
2017-07-14T00:31:50.954Z,16.09
2017-07-14T00:32:31.825Z,16.21
2017-07-14T00:33:12.715Z,16.21
2017-07-14T00:33:53.623Z,16.16
2017-07-14T00:34:34.506Z,16.1
2017-07-14T00:35:15.390Z,16.1
2017-07-14T00:35:56.271Z,16.12
2017-07-14T00:36:37.178Z,16.16
2017-07-14T00:37:18.061Z,16.26
2017-07-14T00:37:58.946Z,16.21
2017-07-14T00:38:39.832Z,16.24
2017-07-14T00:39:20.735Z,16.2
2017-07-14T00:40:01.679Z,16.2
2017-07-14T00:40:42.550Z,16.26
2017-07-14T00:41:23.425Z,16.26
2017-07-14T00:42:04.312Z,16.2
2017-07-14T00:42:45.208Z,16.13
2017-07-14T00:43:26.089Z,16.2
2017-07-14T00:44:06.979Z,16.23
2017-07-14T00:44:47.877Z,16.15
2017-07-14T00:45:28.753Z,16.23
2017-07-14T00:46:09.631Z,16.2
2017-07-14T00:46:50.537Z,16.28
2017-07-14T00:47:31.432Z,16.21
2017-07-14T00:48:12.316Z,16.24
2017-07-14T00:48:53.206Z,16.23
2017-07-14T00:49:34.111Z,16.28
2017-07-14T00:50:14.997Z,16.2
2017-07-14T00:50:55.883Z,16.16
2017-07-14T00:51:36.764Z,16.13
2017-07-14T00:52:17.665Z,16.15
2017-07-14T00:52:58.564Z,16.13
2017-07-14T00:53:39.464Z,16.16
2017-07-14T00:54:20.323Z,16.17
2017-07-14T00:55:01.237Z,16.16
2017-07-14T00:55:42.136Z,16.16
2017-07-14T00:56:23.015Z,16.13
2017-07-14T00:57:03.909Z,16.13
2017-07-14T00:57:44.794Z,16.09
2017-07-14T00:58:25.671Z,16.12
2017-07-14T00:59:06.599Z,16.16
2017-07-14T00:59:47.492Z,16.12
2017-07-14T01:00:28.409Z,16.15
2017-07-14T01:01:09.305Z,16.09
2017-07-14T01:01:50.185Z,16.09
2017-07-14T01:02:31.084Z,15.95
2017-07-14T01:03:11.981Z,15.95
2017-07-14T01:03:52.874Z,16
2017-07-14T01:04:33.790Z,15.9
2017-07-14T01:05:14.684Z,15.9
2017-07-14T01:05:55.570Z,15.9
2017-07-14T01:06:36.474Z,15.91
2017-07-14T01:07:17.355Z,15.97
2017-07-14T01:07:58.248Z,15.92
2017-07-14T01:08:39.159Z,15.83
2017-07-14T01:09:20.025Z,15.88
2017-07-14T01:10:00.931Z,15.92
2017-07-14T01:10:41.828Z,15.9
2017-07-14T01:11:22.737Z,15.88
2017-07-14T01:12:03.626Z,15.84
2017-07-14T01:12:44.507Z,15.86
2017-07-14T01:13:25.392Z,15.9
2017-07-14T01:14:06.284Z,15.76
2017-07-14T01:14:47.235Z,15.7
2017-07-14T01:15:28.125Z,15.65
2017-07-14T01:16:09.009Z,15.79
2017-07-14T01:16:49.892Z,15.76
2017-07-14T01:17:30.780Z,15.73
2017-07-14T01:19:09.197Z,15.82
2017-07-14T01:19:50.081Z,15.83
2017-07-14T01:20:30.959Z,15.83
2017-07-14T01:21:11.841Z,15.83
2017-07-14T01:21:52.732Z,15.92
2017-07-14T01:22:33.614Z,15.92
2017-07-14T01:23:14.500Z,15.94
2017-07-14T01:23:55.407Z,15.83
2017-07-14T01:24:36.290Z,15.88
2017-07-14T01:25:17.182Z,15.91
2017-07-14T01:25:58.073Z,15.95
2017-07-14T01:26:38.962Z,15.94
2017-07-14T01:27:19.848Z,15.92
2017-07-14T01:28:00.754Z,15.9
2017-07-14T01:28:41.635Z,15.95
2017-07-14T01:29:22.595Z,15.88
2017-07-14T01:30:03.489Z,15.92
2017-07-14T01:30:44.373Z,15.77
2017-07-14T01:31:25.254Z,15.82
2017-07-14T01:32:06.138Z,15.8
2017-07-14T01:32:47.011Z,15.82
2017-07-14T01:33:27.928Z,15.84
2017-07-14T01:34:08.832Z,15.82
2017-07-14T01:34:49.724Z,15.68
2017-07-14T01:35:30.607Z,15.67
2017-07-14T01:36:11.504Z,15.67
2017-07-14T01:36:52.397Z,15.72
2017-07-14T01:37:33.282Z,15.59
2017-07-14T01:38:14.161Z,15.59
2017-07-14T01:38:55.054Z,15.67
2017-07-14T01:39:35.946Z,15.72
2017-07-14T01:40:16.835Z,15.7
2017-07-14T01:40:57.716Z,15.61
2017-07-14T01:41:38.624Z,15.54
2017-07-14T01:42:19.500Z,15.59
2017-07-14T01:43:00.390Z,15.59
2017-07-14T01:43:41.292Z,15.64
2017-07-14T01:44:22.186Z,15.62
2017-07-14T01:45:03.063Z,15.61
2017-07-14T01:45:43.954Z,15.52
2017-07-14T01:46:24.846Z,15.43
2017-07-14T01:47:05.723Z,15.47
2017-07-14T01:47:46.631Z,15.47
2017-07-14T01:48:27.519Z,15.65
2017-07-14T01:49:08.396Z,15.59
2017-07-14T01:49:49.278Z,15.67
2017-07-14T01:50:30.167Z,15.73
2017-07-14T01:51:11.053Z,15.59
2017-07-14T01:51:51.946Z,15.75
2017-07-14T01:52:32.819Z,15.75
2017-07-14T01:53:13.716Z,15.62
2017-07-14T01:53:54.603Z,15.73
2017-07-14T01:54:35.485Z,15.72
2017-07-14T01:55:16.374Z,15.67
2017-07-14T01:55:57.262Z,15.7
2017-07-14T01:56:38.141Z,15.7
2017-07-14T01:57:19.024Z,15.72
2017-07-14T01:57:59.935Z,15.75
2017-07-14T01:58:40.818Z,15.77
2017-07-14T01:59:21.690Z,15.75
2017-07-14T02:00:02.595Z,15.8
2017-07-14T02:00:43.500Z,15.77
2017-07-14T02:01:24.355Z,15.73
2017-07-14T02:02:05.259Z,15.61
2017-07-14T02:02:46.151Z,15.43
2017-07-14T02:03:27.030Z,15.46
2017-07-14T02:04:07.912Z,15.58
2017-07-14T02:04:48.790Z,15.52
2017-07-14T02:05:29.682Z,15.59
2017-07-14T02:06:10.577Z,15.68
2017-07-14T02:06:51.497Z,15.62
2017-07-14T02:07:32.358Z,15.65
2017-07-14T02:08:13.246Z,15.7
2017-07-14T02:08:54.116Z,15.75
2017-07-14T02:09:35.006Z,15.73
2017-07-14T02:10:15.904Z,15.7
2017-07-14T02:10:56.789Z,15.7
2017-07-14T02:11:37.689Z,15.79
2017-07-14T02:12:18.587Z,15.82
2017-07-14T02:12:59.467Z,15.72
2017-07-14T02:13:40.354Z,15.82
2017-07-14T02:14:21.237Z,15.76
2017-07-14T02:15:02.125Z,15.77
2017-07-14T02:15:43.029Z,15.88
2017-07-14T02:16:23.930Z,15.76
2017-07-14T02:17:04.816Z,15.8
2017-07-14T02:17:45.703Z,15.88
2017-07-14T02:18:26.596Z,15.97
2017-07-14T02:19:07.490Z,15.83
2017-07-14T02:19:48.379Z,15.88
2017-07-14T02:20:29.268Z,15.77
2017-07-14T02:21:10.147Z,15.84
2017-07-14T02:21:51.027Z,15.8
2017-07-14T02:22:31.916Z,15.91
2017-07-14T02:23:12.874Z,15.79
2017-07-14T02:23:53.758Z,15.88
2017-07-14T02:24:34.638Z,15.92
2017-07-14T02:25:15.523Z,15.77
2017-07-14T02:25:56.434Z,15.77
2017-07-14T02:26:37.314Z,15.91
2017-07-14T02:27:18.227Z,15.83
2017-07-14T02:27:59.128Z,15.9
2017-07-14T02:28:40.019Z,15.7
2017-07-14T02:29:20.918Z,15.61
2017-07-14T02:30:01.808Z,15.49
2017-07-14T02:30:42.717Z,15.46
2017-07-14T02:31:23.653Z,15.54
2017-07-14T02:32:04.542Z,15.57
2017-07-14T02:32:45.425Z,15.58
2017-07-14T02:33:26.318Z,15.61
2017-07-14T02:34:07.237Z,15.61
2017-07-14T02:34:48.119Z,15.67
2017-07-14T02:35:29.012Z,15.72
2017-07-14T02:36:09.906Z,15.62
2017-07-14T02:36:50.795Z,15.7
2017-07-14T02:37:31.682Z,15.59
2017-07-14T02:38:12.573Z,15.68
2017-07-14T02:38:53.466Z,15.64
2017-07-14T02:39:34.345Z,15.64
2017-07-14T02:40:15.237Z,15.61
2017-07-14T02:40:56.126Z,15.55
2017-07-14T02:41:37.003Z,15.58
2017-07-14T02:42:17.888Z,15.59
2017-07-14T02:42:58.784Z,15.55
2017-07-14T02:43:39.674Z,15.58
2017-07-14T02:44:20.558Z,15.57
2017-07-14T02:45:01.451Z,15.52
2017-07-14T02:45:42.340Z,15.57
2017-07-14T02:46:23.215Z,15.57
2017-07-14T02:47:04.094Z,15.65
2017-07-14T02:47:44.976Z,15.54
2017-07-14T02:48:25.843Z,15.59
2017-07-14T02:49:06.733Z,15.57
2017-07-14T02:49:47.614Z,15.54
2017-07-14T02:50:28.501Z,15.57
2017-07-14T02:51:09.380Z,15.59
2017-07-14T02:51:50.266Z,15.67
2017-07-14T02:52:31.153Z,15.67
2017-07-14T02:53:12.047Z,15.68
2017-07-14T02:53:52.929Z,15.72
2017-07-14T02:54:33.813Z,15.72
2017-07-14T02:55:14.703Z,15.72
2017-07-14T02:55:55.589Z,15.7
2017-07-14T02:56:36.479Z,15.73
2017-07-14T02:57:17.363Z,15.84
2017-07-14T02:57:58.261Z,15.9
2017-07-14T02:58:39.171Z,15.91
2017-07-14T02:59:20.040Z,15.8
2017-07-14T03:00:00.928Z,15.94
2017-07-14T03:00:41.860Z,15.91
2017-07-14T03:01:22.754Z,15.83
2017-07-14T03:02:03.631Z,15.88
2017-07-14T03:02:44.564Z,15.88
2017-07-14T03:03:25.461Z,15.84
2017-07-14T03:04:06.343Z,15.92
2017-07-14T03:04:47.233Z,15.82
2017-07-14T03:05:28.123Z,15.75
2017-07-14T03:06:09.011Z,15.83
2017-07-14T03:06:49.917Z,15.84
2017-07-14T03:07:30.809Z,15.77
2017-07-14T03:08:11.700Z,15.7
2017-07-14T03:08:52.595Z,15.88
2017-07-14T03:09:33.484Z,15.8
2017-07-14T03:10:14.379Z,15.91
2017-07-14T03:10:55.272Z,15.76
2017-07-14T03:11:36.158Z,15.7
2017-07-14T03:12:17.037Z,15.67
2017-07-14T03:12:57.942Z,15.65
2017-07-14T03:13:38.822Z,15.54
2017-07-14T03:14:19.711Z,15.49
2017-07-14T03:15:00.592Z,15.49
2017-07-14T03:15:41.482Z,15.47
2017-07-14T03:16:22.410Z,15.49
2017-07-14T03:17:03.255Z,15.37
2017-07-14T03:17:44.141Z,15.36
2017-07-14T03:18:25.028Z,15.39
2017-07-14T03:19:05.939Z,15.42
2017-07-14T03:19:46.838Z,15.36
2017-07-14T03:20:27.730Z,15.36
2017-07-14T03:21:08.620Z,15.44
2017-07-14T03:21:49.509Z,15.46
2017-07-14T03:22:30.400Z,15.57
2017-07-14T03:23:11.301Z,15.58
2017-07-14T03:23:52.189Z,15.59
2017-07-14T03:24:33.076Z,15.57
2017-07-14T03:25:13.983Z,15.7
2017-07-14T03:25:54.859Z,15.62
2017-07-14T03:26:35.771Z,15.79
2017-07-14T03:27:16.651Z,15.82
2017-07-14T03:27:57.542Z,15.77
2017-07-14T03:28:38.435Z,15.75
2017-07-14T03:29:19.324Z,15.77
2017-07-14T03:30:00.218Z,15.76
2017-07-14T03:30:41.099Z,15.8
2017-07-14T03:31:21.986Z,15.77
2017-07-14T03:32:02.887Z,15.88
2017-07-14T03:32:43.752Z,15.72
2017-07-14T03:33:24.649Z,15.86
2017-07-14T03:34:05.508Z,15.88
2017-07-14T03:34:46.385Z,15.88
2017-07-14T03:35:27.275Z,15.75
2017-07-14T03:36:08.160Z,15.7
2017-07-14T03:36:49.093Z,15.67
2017-07-14T03:37:29.993Z,15.73
2017-07-14T03:38:10.878Z,15.73
2017-07-14T03:38:51.780Z,15.79
2017-07-14T03:39:32.662Z,15.79
2017-07-14T03:40:13.535Z,15.77
2017-07-14T03:40:54.416Z,15.84
2017-07-14T03:41:35.305Z,15.8
2017-07-14T03:42:16.208Z,15.83
2017-07-14T03:42:57.086Z,15.94
2017-07-14T03:43:37.974Z,15.64
2017-07-14T03:44:18.867Z,15.77
2017-07-14T03:44:59.743Z,15.76
2017-07-14T03:45:40.626Z,15.88
2017-07-14T03:46:21.518Z,15.82
2017-07-14T03:47:02.412Z,15.82
2017-07-14T03:47:43.261Z,15.73
2017-07-14T03:48:24.204Z,15.68
2017-07-14T03:49:05.100Z,15.82
2017-07-14T03:49:46.000Z,15.77
2017-07-14T03:50:26.895Z,15.7
2017-07-14T03:51:07.773Z,15.68
2017-07-14T03:51:48.649Z,15.57
2017-07-14T03:52:29.538Z,15.51
2017-07-14T03:53:10.444Z,15.54
2017-07-14T03:53:51.338Z,15.46
2017-07-14T03:54:32.234Z,15.51
2017-07-14T03:55:13.112Z,15.49
2017-07-14T03:55:53.996Z,15.42
2017-07-14T03:56:34.891Z,15.44
2017-07-14T03:57:15.769Z,15.42
2017-07-14T03:57:56.670Z,15.51
2017-07-14T03:58:37.580Z,15.57
2017-07-14T03:59:18.467Z,15.68
2017-07-14T03:59:59.346Z,15.59
2017-07-14T04:00:40.238Z,15.59
2017-07-14T04:01:21.133Z,15.7
2017-07-14T04:02:02.028Z,15.77
2017-07-14T04:02:42.926Z,15.91
2017-07-14T04:03:23.808Z,15.94
2017-07-14T04:04:04.684Z,15.92
2017-07-14T04:04:45.564Z,15.84
2017-07-14T04:05:26.454Z,15.91
2017-07-14T04:06:07.353Z,15.91
2017-07-14T04:06:48.236Z,15.65
2017-07-14T04:07:29.132Z,15.64
2017-07-14T04:08:10.018Z,15.67
2017-07-14T04:08:50.899Z,15.57
2017-07-14T04:09:31.797Z,15.72
2017-07-14T04:10:12.698Z,15.67
2017-07-14T04:10:53.588Z,15.62
2017-07-14T04:11:34.479Z,15.73
2017-07-14T04:12:15.374Z,15.7
2017-07-14T04:12:56.275Z,15.61
2017-07-14T04:13:37.155Z,15.59
2017-07-14T04:14:18.036Z,15.61
2017-07-14T04:14:58.917Z,15.72
2017-07-14T04:15:39.818Z,15.67
2017-07-14T04:16:20.711Z,15.61
2017-07-14T04:17:01.623Z,15.65
2017-07-14T04:17:42.503Z,15.68
2017-07-14T04:18:23.400Z,15.83
2017-07-14T04:19:04.289Z,15.92
2017-07-14T04:19:45.191Z,15.9
2017-07-14T04:20:26.095Z,16
2017-07-14T04:21:06.984Z,15.97
2017-07-14T04:21:47.904Z,16.08
2017-07-14T04:22:28.782Z,16
2017-07-14T04:23:09.678Z,15.82
2017-07-14T04:23:50.569Z,15.84
2017-07-14T04:24:31.455Z,15.91
2017-07-14T04:25:12.350Z,15.79
2017-07-14T04:25:53.241Z,15.83
2017-07-14T04:26:34.123Z,15.79
2017-07-14T04:27:15.023Z,15.86
2017-07-14T04:27:55.918Z,15.98
2017-07-14T04:28:36.814Z,16.09
2017-07-14T04:29:17.717Z,16.08
2017-07-14T04:29:58.605Z,16.08
2017-07-14T04:30:39.478Z,16
2017-07-14T04:31:20.370Z,15.9
2017-07-14T04:32:01.262Z,15.95
2017-07-14T04:32:42.156Z,16.09
2017-07-14T04:33:23.047Z,16.23
2017-07-14T04:34:03.950Z,16.35
2017-07-14T04:34:44.840Z,16.39
2017-07-14T04:35:25.729Z,16.47
2017-07-14T04:36:06.627Z,16.49
2017-07-14T04:36:47.513Z,16.47
2017-07-14T04:37:28.404Z,16.51
2017-07-14T04:38:09.289Z,16.64
2017-07-14T04:38:50.178Z,16.71
2017-07-14T04:39:31.051Z,16.68
2017-07-14T04:40:11.953Z,16.69
2017-07-14T04:40:52.845Z,16.46
2017-07-14T04:41:33.729Z,16.38
2017-07-14T04:42:14.688Z,16.23
2017-07-14T04:42:55.572Z,16.43
2017-07-14T04:43:36.559Z,16.42
2017-07-14T04:44:17.519Z,16.61
2017-07-14T04:44:58.460Z,16.68
2017-07-14T04:46:31.812Z,16.75
2017-07-14T04:47:12.791Z,16.53
2017-07-14T04:48:41.014Z,16.53
2017-07-14T04:49:21.968Z,16.42
2017-07-14T04:50:39.945Z,16.76
2017-07-14T04:51:20.876Z,16.91
2017-07-14T04:52:01.845Z,17.09
2017-07-14T04:52:42.811Z,17.16
2017-07-14T04:53:23.847Z,17.23
2017-07-14T04:54:04.812Z,17.36
2017-07-14T04:55:22.837Z,17.42
2017-07-14T04:57:01.237Z,17.29
2017-07-14T04:57:42.117Z,17.38
2017-07-14T04:58:23.005Z,17.36
2017-07-14T04:59:03.905Z,17.56
2017-07-14T04:59:44.785Z,17.6
2017-07-14T05:00:25.681Z,17.3
2017-07-14T05:01:06.573Z,17.51
2017-07-14T05:02:35.710Z,17.6
2017-07-14T05:03:16.580Z,17.74
2017-07-14T05:03:57.469Z,17.79
2017-07-14T05:04:38.357Z,17.83
2017-07-14T05:05:19.235Z,18
2017-07-14T05:06:00.117Z,18
2017-07-14T05:06:41.008Z,17.89
2017-07-14T05:07:21.883Z,17.6
2017-07-14T05:08:02.758Z,17.44
2017-07-14T05:08:43.657Z,17.34
2017-07-14T05:09:24.546Z,17.52
2017-07-14T05:10:05.426Z,17.72
2017-07-14T05:10:46.332Z,17.72
2017-07-14T05:11:27.219Z,17.85
2017-07-14T05:12:08.118Z,17.98
2017-07-14T05:12:49.029Z,18
2017-07-14T05:13:29.919Z,18.15
2017-07-14T05:14:10.793Z,17.82
2017-07-14T05:14:51.666Z,17.64
2017-07-14T05:15:32.554Z,17.7
2017-07-14T05:16:13.445Z,17.8
2017-07-14T05:16:54.342Z,17.86
2017-07-14T05:17:35.228Z,18.07
2017-07-14T05:18:16.139Z,18.1
2017-07-14T05:18:57.049Z,18.11
2017-07-14T05:19:37.973Z,17.83
2017-07-14T05:20:18.866Z,17.86
2017-07-14T05:20:59.760Z,17.85
2017-07-14T05:21:40.646Z,17.86
2017-07-14T05:22:21.515Z,17.65
2017-07-14T05:23:40.393Z,17.86
2017-07-14T05:24:21.281Z,17.67
2017-07-14T05:25:02.153Z,17.67
2017-07-14T05:26:32.925Z,17.6
2017-07-14T05:27:13.816Z,17.71
2017-07-14T05:27:54.727Z,17.86
2017-07-14T05:28:35.634Z,17.82
2017-07-14T05:29:16.518Z,17.78
2017-07-14T05:29:57.416Z,17.64
2017-07-14T05:31:51.052Z,17.92
2017-07-14T05:32:31.949Z,17.82
2017-07-14T05:33:12.839Z,17.85
2017-07-14T05:33:53.731Z,17.79
2017-07-14T05:34:34.623Z,17.8
2017-07-14T05:35:15.510Z,17.8
2017-07-14T05:35:56.404Z,17.8
2017-07-14T05:36:37.296Z,17.78
2017-07-14T05:37:18.205Z,17.74
2017-07-14T05:37:59.119Z,17.79
2017-07-14T05:38:40.009Z,17.78
2017-07-14T05:39:20.890Z,17.9
2017-07-14T05:40:01.780Z,17.86
2017-07-14T05:40:42.710Z,18.01
2017-07-14T05:41:23.618Z,18.25
2017-07-14T05:42:04.510Z,18.31
2017-07-14T05:42:45.399Z,18.4
2017-07-14T05:43:26.288Z,18.08
2017-07-14T05:44:07.182Z,18.13
2017-07-14T05:44:48.080Z,18.07
2017-07-14T05:45:28.973Z,17.98
2017-07-14T05:46:09.865Z,18
2017-07-14T05:46:50.737Z,17.92
2017-07-14T05:47:31.631Z,17.8
2017-07-14T05:48:12.532Z,17.86
2017-07-14T05:48:53.416Z,17.7
2017-07-14T05:49:34.316Z,17.92
2017-07-14T05:50:15.213Z,18.15
2017-07-14T05:50:56.090Z,18.33
2017-07-14T05:51:36.970Z,18.43
2017-07-14T05:52:17.866Z,18.5
2017-07-14T05:52:58.750Z,18.55
2017-07-14T05:53:39.635Z,18.7
2017-07-14T05:54:21.051Z,18.77
2017-07-14T05:55:01.950Z,18.95
2017-07-14T05:55:42.833Z,18.95
2017-07-14T05:56:24.114Z,18.6
2017-07-14T05:57:04.996Z,18.37
2017-07-14T05:57:45.884Z,18.26
2017-07-14T05:58:26.771Z,18.08
2017-07-14T05:59:07.681Z,18.34
2017-07-14T05:59:48.567Z,18.55
2017-07-14T06:00:29.457Z,18.66
2017-07-14T06:01:10.350Z,18.75
2017-07-14T06:01:51.250Z,18.65
2017-07-14T06:02:32.143Z,18.88
2017-07-14T06:03:13.038Z,18.83
2017-07-14T06:03:53.927Z,18.89
2017-07-14T06:04:34.808Z,18.9
2017-07-14T06:05:15.707Z,18.96
2017-07-14T06:05:56.598Z,18.9
2017-07-14T06:06:37.486Z,18.99
2017-07-14T06:07:18.409Z,19.15
2017-07-14T06:07:59.348Z,19.31
2017-07-14T06:08:40.237Z,19.33
2017-07-14T06:09:21.123Z,19.3
2017-07-14T06:10:02.025Z,19.3
2017-07-14T06:10:42.916Z,19.3
2017-07-14T06:11:23.799Z,19.34
2017-07-14T06:12:04.694Z,19.4
2017-07-14T06:12:45.583Z,19.34
2017-07-14T06:13:26.519Z,19.44
2017-07-14T06:14:07.406Z,19.49
2017-07-14T06:14:48.309Z,19.39
2017-07-14T06:15:29.202Z,19.54
2017-07-14T06:16:10.094Z,19.51
2017-07-14T06:16:50.982Z,19.67
2017-07-14T06:17:31.897Z,19.69
2017-07-14T06:18:12.762Z,19.71
2017-07-14T06:18:53.675Z,19.62
2017-07-14T06:19:34.573Z,19.56
2017-07-14T06:20:15.491Z,19.55
2017-07-14T06:20:56.450Z,19.44
2017-07-14T06:21:37.347Z,19.51
2017-07-14T06:22:18.237Z,19.52
2017-07-14T06:22:59.128Z,19.59
2017-07-14T06:23:40.056Z,19.56
2017-07-14T06:24:20.956Z,19.63
2017-07-14T06:25:01.844Z,19.84
2017-07-14T06:25:42.777Z,19.89
2017-07-14T06:26:23.672Z,19.91
2017-07-14T06:27:04.550Z,19.84
2017-07-14T06:27:45.446Z,19.88
2017-07-14T06:28:26.342Z,19.86
2017-07-14T06:29:07.225Z,19.91
2017-07-14T06:29:48.118Z,19.84
2017-07-14T06:30:28.999Z,19.99
2017-07-14T06:31:09.877Z,20.03
2017-07-14T06:31:50.777Z,19.95
2017-07-14T06:32:31.665Z,20.1
2017-07-14T06:33:12.555Z,20.07
2017-07-14T06:33:53.439Z,20.07
2017-07-14T06:34:34.333Z,20.11
2017-07-14T06:35:15.221Z,20.06
2017-07-14T06:35:56.114Z,20.14
2017-07-14T06:36:37.013Z,20.06
2017-07-14T06:37:17.907Z,20.03
2017-07-14T06:37:58.804Z,20.1
2017-07-14T06:38:39.744Z,20.06
2017-07-14T06:39:20.637Z,20.1
2017-07-14T06:40:01.533Z,20.07
2017-07-14T06:40:42.422Z,20.21
2017-07-14T06:41:23.324Z,20.28
2017-07-14T06:42:04.217Z,20.39
2017-07-14T06:42:45.099Z,20.37
2017-07-14T06:43:25.998Z,20.44
2017-07-14T06:44:06.894Z,20.59
2017-07-14T06:46:00.568Z,20.6
2017-07-14T06:46:41.449Z,20.69
2017-07-14T06:47:22.332Z,20.43
2017-07-14T06:48:03.287Z,20.48
2017-07-14T06:48:44.199Z,20.92
2017-07-14T06:49:25.086Z,21.25
2017-07-14T06:50:05.979Z,21.88
2017-07-14T06:50:46.889Z,22.36
2017-07-14T06:51:27.792Z,22.32
2017-07-14T06:52:08.703Z,22.84
2017-07-14T06:52:49.573Z,23.31
2017-07-14T06:53:30.466Z,23.39
2017-07-14T06:54:11.399Z,22.41
2017-07-14T06:54:52.301Z,22.81
2017-07-14T06:55:33.197Z,22.66
2017-07-14T06:56:14.091Z,22.69
2017-07-14T06:56:54.992Z,22.93
2017-07-14T06:57:35.898Z,23
2017-07-14T06:58:16.785Z,22.85
2017-07-14T06:58:57.676Z,22.66
2017-07-14T06:59:38.571Z,22.78
2017-07-14T07:00:19.478Z,22.85
2017-07-14T07:01:00.376Z,23.03
2017-07-14T07:01:41.276Z,23.32
2017-07-14T07:02:22.164Z,23.48
2017-07-14T07:03:03.051Z,23.68
2017-07-14T07:03:43.935Z,23.77
2017-07-14T07:04:24.830Z,24.03
2017-07-14T07:05:05.737Z,24.32
2017-07-14T07:05:46.628Z,24.47
2017-07-14T07:06:27.521Z,24.58
2017-07-14T07:07:08.428Z,24.86
2017-07-14T07:07:49.320Z,24.05
2017-07-14T07:08:30.222Z,24.3
2017-07-14T07:09:11.117Z,24.93
2017-07-14T07:09:52.015Z,25.43
2017-07-14T07:10:32.909Z,25.63
2017-07-14T07:11:13.796Z,25.85
2017-07-14T07:11:54.691Z,26.21
2017-07-14T07:12:35.577Z,26.25
2017-07-14T07:13:16.481Z,26.29
2017-07-14T07:13:57.370Z,26.41
2017-07-14T07:14:38.271Z,26.38
2017-07-14T07:15:19.165Z,26.1
2017-07-14T07:16:00.059Z,25.93
2017-07-14T07:16:40.964Z,26.13
2017-07-14T07:17:21.866Z,26.45
2017-07-14T07:18:02.763Z,26.75
2017-07-14T07:18:43.668Z,27.15
2017-07-14T07:19:24.566Z,27.44
2017-07-14T07:20:05.462Z,27.7
2017-07-14T07:20:46.361Z,28.05
2017-07-14T07:21:27.292Z,28.25
2017-07-14T07:22:08.215Z,28.32
2017-07-14T07:22:49.150Z,28.44
2017-07-14T07:23:30.054Z,28.54
2017-07-14T07:24:10.951Z,28.63
2017-07-14T07:24:51.870Z,27.07
2017-07-14T07:25:32.755Z,26.63
2017-07-14T07:26:13.666Z,25.5
2017-07-14T07:26:54.571Z,24.98
2017-07-14T07:27:35.480Z,24.96
2017-07-14T07:28:16.364Z,25.91
2017-07-14T07:28:57.249Z,26.58
2017-07-14T07:29:38.155Z,26.97
2017-07-14T07:31:16.923Z,26.96
2017-07-14T07:31:57.833Z,26.78
2017-07-14T07:32:38.749Z,26.34
2017-07-14T07:33:19.656Z,26.13
2017-07-14T07:34:00.549Z,26.25
2017-07-14T07:34:41.492Z,26.15
2017-07-14T07:35:22.381Z,26.18
2017-07-14T07:36:03.285Z,26.38
2017-07-14T07:36:44.174Z,26.63
2017-07-14T07:37:25.047Z,26.99
2017-07-14T07:38:05.951Z,27.22
2017-07-14T07:38:46.855Z,27.6
2017-07-14T07:39:27.757Z,27.86
2017-07-14T07:40:08.663Z,28.14
2017-07-14T07:40:49.553Z,28.2
2017-07-14T07:41:30.470Z,28.1
2017-07-14T07:42:11.403Z,28.02
2017-07-14T07:42:52.305Z,28.05
2017-07-14T07:43:33.220Z,27.85
2017-07-14T07:44:14.117Z,27.58
2017-07-14T07:44:55.029Z,27.12
2017-07-14T07:45:35.944Z,26.66
2017-07-14T07:46:16.826Z,26.45
2017-07-14T07:46:57.735Z,26.44
2017-07-14T07:47:38.641Z,26.52
2017-07-14T07:48:19.551Z,26.66
2017-07-14T07:49:00.440Z,26.83
2017-07-14T07:49:41.326Z,26.74
2017-07-14T07:50:22.283Z,26.6
2017-07-14T07:51:40.183Z,26.06
2017-07-14T07:52:21.216Z,25.91
2017-07-14T07:53:02.124Z,25.84
2017-07-14T07:53:43.038Z,25.85
2017-07-14T07:54:23.921Z,25.87
2017-07-14T07:55:04.827Z,25.93
2017-07-14T07:55:45.753Z,25.96
2017-07-14T07:56:26.645Z,25.95
2017-07-14T07:57:07.547Z,26.09
2017-07-14T07:57:48.437Z,26.22
2017-07-14T07:58:29.344Z,26.33
2017-07-14T07:59:10.254Z,26.78
2017-07-14T07:59:51.165Z,26.48
2017-07-14T08:00:32.052Z,25.48
2017-07-14T08:01:12.955Z,26.16
2017-07-14T08:01:53.872Z,26.65
2017-07-14T08:02:34.772Z,27.11
2017-07-14T08:03:15.673Z,27.15
2017-07-14T08:03:56.589Z,26.99
2017-07-14T08:04:37.490Z,26.89
2017-07-14T08:05:18.399Z,26.85
2017-07-14T08:05:59.297Z,26.8
2017-07-14T08:06:40.197Z,26.89
2017-07-14T08:07:21.091Z,26.84
2017-07-14T08:08:01.983Z,27.2
2017-07-14T08:08:42.885Z,27.1
2017-07-14T08:09:23.833Z,26.71
2017-07-14T08:10:04.726Z,26.44
2017-07-14T08:10:45.635Z,26.13
2017-07-14T08:11:26.545Z,25.62
2017-07-14T08:12:07.450Z,25.41
2017-07-14T08:12:48.362Z,25.26
2017-07-14T08:13:29.258Z,25.38
2017-07-14T08:14:10.217Z,25.36
2017-07-14T08:14:51.116Z,25.55
2017-07-14T08:15:32.019Z,25.7
2017-07-14T08:16:12.919Z,25.78
2017-07-14T08:16:53.817Z,25.96
2017-07-14T08:17:34.722Z,26.13
2017-07-14T08:18:15.634Z,26
2017-07-14T08:18:56.516Z,26
2017-07-14T08:19:37.420Z,25.99
2017-07-14T08:20:18.328Z,25.95
2017-07-14T08:20:59.228Z,26
2017-07-14T08:21:40.123Z,25.9
2017-07-14T08:22:21.024Z,25.72
2017-07-14T08:23:01.927Z,25.8
2017-07-14T08:23:42.827Z,25.83
2017-07-14T08:24:23.741Z,25.83
2017-07-14T08:25:04.645Z,25.85
2017-07-14T08:25:45.553Z,25.91
2017-07-14T08:26:26.463Z,25.9
2017-07-14T08:27:07.363Z,25.96
2017-07-14T08:27:48.266Z,24.84
2017-07-14T08:28:29.181Z,24.96
2017-07-14T08:29:10.078Z,23.78
2017-07-14T08:29:51.008Z,24.33
2017-07-14T08:30:31.913Z,23.54
2017-07-14T08:31:12.813Z,22.41
2017-07-14T08:31:53.734Z,21.73
2017-07-14T08:32:34.632Z,20.97
2017-07-14T08:33:15.544Z,21.6
2017-07-14T08:33:56.487Z,22.14
2017-07-14T08:34:37.396Z,22.57
2017-07-14T08:35:18.294Z,22.75
2017-07-14T08:35:59.204Z,22.85
2017-07-14T08:36:40.121Z,23
2017-07-14T08:37:21.027Z,23.1
2017-07-14T08:38:01.924Z,23.21
2017-07-14T08:38:42.837Z,23.21
2017-07-14T08:39:23.733Z,23.27
2017-07-14T08:40:04.643Z,23.24
2017-07-14T08:40:45.543Z,23.28
2017-07-14T08:41:26.455Z,23.31
2017-07-14T08:42:07.361Z,22.99
2017-07-14T08:42:48.258Z,22.1
2017-07-14T08:43:29.153Z,21.7
2017-07-14T08:44:10.048Z,21.3
2017-07-14T08:44:50.947Z,21.21
2017-07-14T08:45:31.827Z,21.15
2017-07-14T08:46:12.704Z,21.25
2017-07-14T08:46:53.602Z,21.12
2017-07-14T08:47:34.514Z,21.22
2017-07-14T08:48:15.374Z,21.42
2017-07-14T08:48:56.263Z,21.3
2017-07-14T08:49:37.187Z,21.46
2017-07-14T08:50:18.064Z,21.62
2017-07-14T08:50:58.964Z,21.88
2017-07-14T08:51:39.871Z,22.53
2017-07-14T08:52:20.765Z,23.13
2017-07-14T08:53:01.681Z,23.65
2017-07-14T08:53:42.603Z,23.8
2017-07-14T08:54:23.499Z,23.58
2017-07-14T08:55:04.407Z,24.43
2017-07-14T08:55:45.305Z,24.38
2017-07-14T08:56:26.213Z,25.03
2017-07-14T08:57:07.111Z,25.38
2017-07-14T08:57:48.013Z,25.01
2017-07-14T08:58:28.916Z,24.93
2017-07-14T08:59:09.813Z,25.14
2017-07-14T08:59:50.721Z,25.29
2017-07-14T09:00:31.638Z,25.35
2017-07-14T09:01:13.040Z,25.18